EKCH Airport Information

Runway Information
Runway 04L Length 11811 ft width 148 ft
Elevation 13 ft Threshold 0 ft Heading 41
Runway 22R Length 11811 ft Width 148 ft
Elevation 14 ft Threshold 1967 ft Heading 221
Runway 04R Length 10827 ft width 148 ft
Elevation 12 ft Threshold 0 ft Heading 41
Runway 22L Length 10827 ft Width 148 ft
Elevation 8 ft Threshold 0 ft Heading 221
Runway 12 Length 10072 ft width 148 ft
Elevation 13 ft Threshold 2313 ft Heading 123
Runway 30 Length 10072 ft Width 148 ft
Elevation 8 ft Threshold 886 ft Heading 303
Airport Frequencies
Type APP Name Kastrup Ar Frequency 118.45 MHZ
Type APP Name Copenhagen Frequency 119.8 MHZ
Type APP Name Kastrup Fi Frequency 120.2 MHZ
Type ATIS Name Kastrup Ar Frequency 122.75 MHZ
Type ATIS Name Kastrup De Frequency 122.85 MHZ
Type DEL Name Kastrup Cl Frequency 119.9 MHZ
Type DEP Name Kastrup De Frequency 120.25 MHZ
Type DEP Name Kastrup De Frequency 124.975 MHZ
Type GND Name Kastrup Ap Frequency 121.625 MHZ
Type GND Name Kastrup Ap Frequency 121.725 MHZ
Type GND Name Kastrup Ap Frequency 121.9 MHZ
Type TWR Name Kastrup To Frequency 118.1 MHZ
Type TWR Name Kastrup To Frequency 118.575 MHZ
Type TWR Name Kastrup To Frequency 118.7 MHZ
Type TWR Name Kastrup To Frequency 119.35 MHZ
Type TWR Name Kastrup To Frequency 121.825 MHZ
Airport Navaids
Type VOR-DME Name Kastrup Frequency 112500 KHZ
Airport Weather Information & NOTAM
ADDS - METARS form results

(1047 UTC 23 May 2019)
Data provider http://aviationweather.gov/metar/data/
 
METAR text: EKCH 231020Z AUTO 30008KT 270V330 9999 FEW040/// 16/07 Q1017 NOSIG
Conditions at: EKCH (COPENHAGEN/KASTR, DK) observed 1020 UTC 23 May 2019
Temperature: 16.0°C (61°F)
Dewpoint: 7.0°C (45°F) [RH = 55%]
Pressure (altimeter): 30.03 inches Hg (1017.0 mb)
Winds: from the WNW (300 degrees) at 9 MPH (8 knots; 4.1 m/s)
Visibility: 6 or more miles (10+ km)
Ceiling: at least 12,000 feet AGL
Clouds: few clouds at 4000 feet AGL
Weather: no significant weather observed at this time

METAR text: EKCH 230950Z AUTO 30009KT 260V320 9999 NCD 16/06 Q1017 NOSIG
Conditions at: EKCH (COPENHAGEN/KASTR, DK) observed 0950 UTC 23 May 2019
Temperature: 16.0°C (61°F)
Dewpoint: 6.0°C (43°F) [RH = 51%]
Pressure (altimeter): 30.03 inches Hg (1017.0 mb)
Winds: from the WNW (300 degrees) at 10 MPH (9 knots; 4.6 m/s)
Visibility: 6 or more miles (10+ km)
Ceiling: at least 12,000 feet AGL
Clouds: sky clear below 12,000 feet AGL
Weather: no significant weather observed at this time

Forecast for: EKCH (COPENHAGEN/KASTR, DK)
Text: TAF EKCH 230452Z 2306/2406 28010KT 9999 FEW025
Forecast period: 0600 UTC 23 May 2019 to 0600 UTC 24 May 2019
Forecast type: FROM: standard forecast or significant change
Winds: from the W (280 degrees) at 12 MPH (10 knots; 5.1 m/s)
Visibility: 6 or more miles 10+ km)
Ceiling: at least 12,000 feet AGL
Clouds: few clouds at 2500 feet AGL
Weather: no significant weather forecast for this period